Time;durP1;ratioP1;P1;durP2;ratioP2;P2;SDS_P1;SDS_P2;PMS_P1;PMS_P2;Temp;Humidity;BMP_temperature;BMP_pressure;BME280_temperature;BME280_humidity;BME280_pressure;Samples;Min_cycle;Max_cycle;Signal;HPM_P1;HPM_P2
2022/02/02 00:01:25;;;;;;;15.67;4.70;;;;;;;;;;5033076;28;20476;-50
2022/02/02 00:03:53;;;;;;;24.80;4.50;;;;;;;;;;5033350;28;20422;-50
2022/02/02 00:06:32;;;;;;;31.03;5.77;;;;;;;;;;5032570;28;20397;-49
2022/02/02 00:09:10;;;;;;;18.77;4.30;;;;;;;;;;5032721;28;20388;-50
2022/02/02 00:16:48;;;;;;;36.10;5.77;;;;;;;;;;5032785;28;20424;-50
2022/02/02 00:21:45;;;;;;;17.17;4.73;;;;;;;;;;5032741;28;20415;-50
2022/02/02 00:24:22;;;;;;;26.83;5.90;;;;;;;;;;5033108;28;20419;-49
2022/02/02 00:26:53;;;;;;;40.20;5.63;;;;;;;;;;5032748;28;20400;-52
2022/02/02 00:29:22;;;;;;;34.67;5.47;;;;;;;;;;5031899;28;20397;-51
2022/02/02 00:32:00;;;;;;;26.47;5.17;;;;;;;;;;5032435;28;20424;-49
2022/02/02 00:34:28;;;;;;;40.20;6.03;;;;;;;;;;5032123;28;20431;-49
2022/02/02 00:36:58;;;;;;;28.23;5.50;;;;;;;;;;5032458;28;20404;-49
2022/02/02 00:39:25;;;;;;;53.63;7.73;;;;;;;;;;5032014;28;20452;-50
2022/02/02 00:41:56;;;;;;;36.03;6.93;;;;;;;;;;5032327;28;20469;-51
2022/02/02 00:44:22;;;;;;;26.97;4.40;;;;;;;;;;5032343;28;20465;-49
2022/02/02 00:46:48;;;;;;;33.00;6.40;;;;;;;;;;5032207;28;20415;-49
2022/02/02 00:49:14;;;;;;;28.53;6.20;;;;;;;;;;5032083;28;20520;-49
2022/02/02 00:51:49;;;;;;;22.73;5.60;;;;;;;;;;5032424;28;20803;-51
2022/02/02 00:54:20;;;;;;;32.07;4.93;;;;;;;;;;5032089;28;20434;-49
2022/02/02 00:56:46;;;;;;;17.80;4.53;;;;;;;;;;5032235;28;20771;-50
2022/02/02 00:59:13;;;;;;;26.37;5.80;;;;;;;;;;5031772;28;20980;-50
2022/02/02 01:01:39;;;;;;;21.77;5.90;;;;;;;;;;5031687;28;20408;-49
2022/02/02 01:04:05;;;;;;;26.03;5.37;;;;;;;;;;5031474;28;20849;-49
2022/02/02 01:06:35;;;;;;;38.60;6.20;;;;;;;;;;5048029;28;20430;-50
2022/02/02 01:11:51;;;;;;;26.30;4.50;;;;;;;;;;5052165;28;20461;-49
2022/02/02 01:19:36;;;;;;;27.67;5.20;;;;;;;;;;5051521;28;20552;-50
2022/02/02 01:27:49;;;;;;;24.27;6.53;;;;;;;;;;5051814;28;20784;-50
2022/02/02 01:30:08;;;;;;;29.97;5.93;;;;;;;;;;5051219;28;20987;-50
2022/02/02 01:32:34;;;;;;;31.27;5.77;;;;;;;;;;5051389;28;20406;-50
2022/02/02 01:35:00;;;;;;;41.00;6.47;;;;;;;;;;5034003;28;20537;-49
2022/02/02 01:37:28;;;;;;;22.00;4.97;;;;;;;;;;5031534;28;20917;-49
2022/02/02 01:40:00;;;;;;;19.03;4.63;;;;;;;;;;5031109;28;20479;-51
2022/02/02 01:42:33;;;;;;;21.37;5.10;;;;;;;;;;5031364;28;20400;-50
2022/02/02 01:45:11;;;;;;;18.37;5.40;;;;;;;;;;5031447;28;20478;-49
2022/02/02 01:47:47;;;;;;;25.50;5.13;;;;;;;;;;5031177;28;20511;-49
2022/02/02 01:53:00;;;;;;;25.40;6.20;;;;;;;;;;5031400;28;20408;-50
2022/02/02 01:55:31;;;;;;;35.43;5.83;;;;;;;;;;5031128;28;20413;-49
2022/02/02 02:00:23;;;;;;;31.27;5.37;;;;;;;;;;5031009;28;20464;-52
2022/02/02 02:02:49;;;;;;;20.73;5.30;;;;;;;;;;5030400;28;20438;-49
2022/02/02 02:05:15;;;;;;;27.60;5.37;;;;;;;;;;5031142;28;20490;-50
2022/02/02 02:07:42;;;;;;;32.10;4.77;;;;;;;;;;5030875;28;20392;-49
2022/02/02 02:10:08;;;;;;;21.30;5.90;;;;;;;;;;5030817;28;20954;-49
2022/02/02 02:12:48;;;;;;;27.23;8.83;;;;;;;;;;5030455;28;20891;-49
2022/02/02 02:15:16;;;;;;;28.80;6.10;;;;;;;;;;5031013;28;20412;-49
2022/02/02 02:17:42;;;;;;;31.87;5.77;;;;;;;;;;5031164;28;20431;-50
2022/02/02 02:20:08;;;;;;;33.70;5.63;;;;;;;;;;5030885;28;20487;-49
2022/02/02 02:22:38;;;;;;;31.80;5.87;;;;;;;;;;5031154;28;20407;-50
2022/02/02 02:25:04;;;;;;;33.07;6.13;;;;;;;;;;5031104;28;20799;-50
2022/02/02 02:27:30;;;;;;;27.63;4.93;;;;;;;;;;5031026;28;20494;-50
2022/02/02 02:30:06;;;;;;;28.03;5.77;;;;;;;;;;5030661;28;20401;-52
2022/02/02 02:38:25;;;;;;;30.73;5.97;;;;;;;;;;5030902;28;20756;-50
2022/02/02 02:57:15;;;;;;;29.07;6.13;;;;;;;;;;5030686;28;20533;-49
2022/02/02 03:00:01;;;;;;;32.20;7.27;;;;;;;;;;5030321;28;21009;-51
2022/02/02 03:03:24;;;;;;;28.30;4.60;;;;;;;;;;5030021;28;20903;-49
2022/02/02 03:30:09;;;;;;;36.37;5.93;;;;;;;;;;5033756;28;20474;-49
2022/02/02 03:52:35;;;;;;;24.27;6.07;;;;;;;;;;5053473;28;20452;-49
2022/02/02 03:55:02;;;;;;;34.60;5.73;;;;;;;;;;5053082;28;20446;-50
2022/02/02 04:05:47;;;;;;;31.87;7.50;;;;;;;;;;5051624;28;20433;-49
2022/02/02 04:08:28;;;;;;;26.53;6.10;;;;;;;;;;5053088;28;20398;-49
2022/02/02 04:10:56;;;;;;;36.73;6.80;;;;;;;;;;5052718;28;20406;-50
2022/02/02 04:52:01;;;;;;;38.67;6.63;;;;;;;;;;5032633;28;20866;-52
2022/02/02 05:00:08;;;;;;;25.40;5.90;;;;;;;;;;5031582;28;20859;-51
2022/02/02 05:05:44;;;;;;;32.43;6.43;;;;;;;;;;5032112;28;20418;-51
2022/02/02 05:16:12;;;;;;;22.33;5.23;;;;;;;;;;5031992;28;20409;-51
2022/02/02 05:21:48;;;;;;;23.03;6.73;;;;;;;;;;5031866;28;20481;-51
2022/02/02 05:41:10;;;;;;;22.77;5.47;;;;;;;;;;5030982;28;20803;-51
2022/02/02 05:49:12;;;;;;;11.02;3.17;;;;;;;;;;5030886;28;20438;-51
2022/02/02 05:51:49;;;;;;;16.40;4.27;;;;;;;;;;5031105;28;20194;-51
2022/02/02 05:54:15;;;;;;;14.85;3.65;;;;;;;;;;5031339;28;20457;-51
2022/02/02 05:56:43;;;;;;;15.93;4.45;;;;;;;;;;5030986;28;20188;-51
2022/02/02 05:59:11;;;;;;;15.10;2.97;;;;;;;;;;5030952;28;20165;-51
2022/02/02 06:01:40;;;;;;;16.92;4.32;;;;;;;;;;5031185;28;20415;-52
2022/02/02 06:04:08;;;;;;;5.38;3.55;;;;;;;;;;5031374;28;20165;-51
2022/02/02 06:06:34;;;;;;;16.20;3.75;;;;;;;;;;5031306;28;20164;-51
2022/02/02 06:09:00;;;;;;;10.90;5.13;;;;;;;;;;5031258;28;20168;-51
2022/02/02 06:11:27;;;;;;;18.23;4.97;;;;;;;;;;5031254;28;20207;-51
2022/02/02 06:13:58;;;;;;;27.30;4.90;;;;;;;;;;5031038;28;20221;-51
2022/02/02 06:16:26;;;;;;;21.42;5.57;;;;;;;;;;5031157;28;20167;-51
2022/02/02 06:18:57;;;;;;;22.57;5.63;;;;;;;;;;5030980;28;20169;-51
2022/02/02 06:21:27;;;;;;;26.43;5.47;;;;;;;;;;5030989;28;20521;-51
2022/02/02 06:24:02;;;;;;;28.17;6.10;;;;;;;;;;5030399;28;20871;-51
2022/02/02 06:26:29;;;;;;;23.03;4.60;;;;;;;;;;5050814;28;20493;-51
2022/02/02 06:28:57;;;;;;;24.70;5.50;;;;;;;;;;5051229;28;20482;-50
2022/02/02 06:31:26;;;;;;;26.57;5.73;;;;;;;;;;5050702;28;20475;-50
2022/02/02 06:33:59;;;;;;;27.55;5.85;;;;;;;;;;5060271;28;20466;-51
2022/02/02 06:36:27;;;;;;;19.42;6.20;;;;;;;;;;5062065;28;20167;-51
2022/02/02 06:38:53;;;;;;;15.13;4.55;;;;;;;;;;5060219;28;20584;-50
2022/02/02 06:41:20;;;;;;;24.93;4.60;;;;;;;;;;5060800;28;20204;-52
2022/02/02 06:43:46;;;;;;;19.60;3.90;;;;;;;;;;5061592;28;20397;-51
2022/02/02 06:46:14;;;;;;;21.48;4.60;;;;;;;;;;5062500;28;20179;-51
2022/02/02 06:48:40;;;;;;;23.05;5.47;;;;;;;;;;5062053;28;20179;-51
2022/02/02 06:51:12;;;;;;;25.50;5.97;;;;;;;;;;5062011;28;20265;-51
2022/02/02 06:53:58;;;;;;;29.43;4.50;;;;;;;;;;5049494;28;20430;-52
2022/02/02 07:04:48;;;;;;;12.73;3.10;;;;;;;;;;5066293;28;20178;-51
2022/02/02 07:10:27;;;;;;;4.60;2.07;;;;;;;;;;5064773;28;20444;-50
2022/02/02 07:13:17;;;;;;;12.07;3.50;;;;;;;;;;5064522;28;20417;-50
2022/02/02 07:16:07;;;;;;;14.43;3.13;;;;;;;;;;5065043;28;20401;-51
2022/02/02 07:26:28;;;;;;;13.32;2.90;;;;;;;;;;5044797;28;20662;-52
2022/02/02 07:29:00;;;;;;;15.02;3.47;;;;;;;;;;5043480;28;20181;-50
2022/02/02 07:31:47;;;;;;;10.90;2.67;;;;;;;;;;5043475;28;20180;-51
2022/02/02 07:34:22;;;;;;;18.58;3.80;;;;;;;;;;5043570;28;20247;-51
2022/02/02 07:36:50;;;;;;;21.42;3.05;;;;;;;;;;5043697;28;20186;-51
2022/02/02 07:39:17;;;;;;;12.82;2.53;;;;;;;;;;5043725;28;20195;-51
2022/02/02 07:41:44;;;;;;;17.30;4.00;;;;;;;;;;5043976;28;20767;-50
2022/02/02 07:44:15;;;;;;;18.23;3.60;;;;;;;;;;5043389;28;20821;-50
2022/02/02 07:46:44;;;;;;;22.73;3.65;;;;;;;;;;5043622;28;20426;-51
2022/02/02 07:49:11;;;;;;;9.23;2.93;;;;;;;;;;5043125;28;20232;-50
2022/02/02 07:51:38;;;;;;;12.38;2.92;;;;;;;;;;5043623;28;20454;-49
2022/02/02 07:54:10;;;;;;;18.50;3.07;;;;;;;;;;5042930;28;20160;-50
2022/02/02 07:56:42;;;;;;;8.15;3.85;;;;;;;;;;5043129;28;20392;-50
2022/02/02 07:59:18;;;;;;;19.30;4.13;;;;;;;;;;5042786;28;20191;-51
2022/02/02 08:01:46;;;;;;;11.97;3.50;;;;;;;;;;5046128;28;20438;-50
2022/02/02 08:04:13;;;;;;;15.57;2.90;;;;;;;;;;5061591;28;20433;-50
2022/02/02 08:06:42;;;;;;;19.07;3.57;;;;;;;;;;5060847;28;20202;-51
2022/02/02 08:09:12;;;;;;;21.30;3.63;;;;;;;;;;5061117;28;20403;-51
2022/02/02 08:11:39;;;;;;;18.30;3.40;;;;;;;;;;5060064;28;20418;-51
2022/02/02 08:14:05;;;;;;;17.77;3.85;;;;;;;;;;5062241;28;20773;-51
2022/02/02 08:16:32;;;;;;;9.30;3.67;;;;;;;;;;5054241;28;20186;-51
2022/02/02 08:18:58;;;;;;;11.52;4.10;;;;;;;;;;5049668;28;20414;-51
2022/02/02 08:21:24;;;;;;;18.03;4.53;;;;;;;;;;5041020;28;20200;-51
2022/02/02 08:23:50;;;;;;;14.13;3.80;;;;;;;;;;5040964;28;20398;-50
2022/02/02 08:26:16;;;;;;;17.60;3.80;;;;;;;;;;5039981;28;20430;-51
2022/02/02 08:28:47;;;;;;;19.20;4.90;;;;;;;;;;5040853;28;20492;-51
2022/02/02 08:31:14;;;;;;;28.27;4.13;;;;;;;;;;5040914;28;20425;-51
2022/02/02 08:33:44;;;;;;;17.15;4.47;;;;;;;;;;5040697;28;20231;-51
2022/02/02 08:36:14;;;;;;;8.53;3.90;;;;;;;;;;5041006;28;20196;-51
2022/02/02 08:41:49;;;;;;;16.42;4.85;;;;;;;;;;5039842;28;20468;-50
2022/02/02 08:44:10;;;;;;;18.80;4.47;;;;;;;;;;5039331;28;20176;-50
2022/02/02 08:46:40;;;;;;;20.77;4.40;;;;;;;;;;5040075;28;20406;-51
2022/02/02 08:49:10;;;;;;;11.10;3.30;;;;;;;;;;5040654;28;20444;-50
2022/02/02 08:51:41;;;;;;;22.40;4.30;;;;;;;;;;5039311;28;20415;-50
2022/02/02 08:54:15;;;;;;;16.20;4.17;;;;;;;;;;5039837;28;20404;-51
2022/02/02 09:02:06;;;;;;;21.93;5.00;;;;;;;;;;5038566;28;20484;-51
2022/02/02 09:07:17;;;;;;;22.60;4.43;;;;;;;;;;5040101;28;20771;-50
2022/02/02 09:20:00;;;;;;;30.03;4.60;;;;;;;;;;5040384;28;20398;-51
2022/02/02 09:21:39;;;;;;;19.07;4.07;;;;;;;;;;5037773;28;20494;-50
2022/02/02 09:23:59;;;;;;;20.47;4.73;;;;;;;;;;5038252;28;20443;-51
2022/02/02 09:32:10;;;;;;;12.20;3.13;;;;;;;;;;5039432;28;20860;-51
2022/02/02 09:34:34;;;;;;;12.20;4.50;;;;;;;;;;5039232;28;20409;-51
2022/02/02 09:37:00;;;;;;;16.47;4.27;;;;;;;;;;5038591;28;20400;-51
2022/02/02 09:39:36;;;;;;;11.77;3.53;;;;;;;;;;5039443;28;20815;-51
2022/02/02 09:42:06;;;;;;;21.30;4.80;;;;;;;;;;5039900;28;20449;-51
2022/02/02 09:44:39;;;;;;;15.60;3.80;;;;;;;;;;5040054;28;20421;-51
2022/02/02 09:47:29;;;;;;;25.50;4.40;;;;;;;;;;5038487;28;20487;-51
2022/02/02 09:52:24;;;;;;;15.53;3.90;;;;;;;;;;5039661;28;20477;-51
2022/02/02 09:55:02;;;;;;;21.23;3.70;;;;;;;;;;5040045;28;20409;-51
2022/02/02 09:57:50;;;;;;;18.57;3.80;;;;;;;;;;5040520;28;20425;-50
2022/02/02 10:00:33;;;;;;;20.87;3.77;;;;;;;;;;5040046;28;20468;-54
2022/02/02 10:05:45;;;;;;;21.20;4.40;;;;;;;;;;5041131;28;20396;-51
2022/02/02 10:11:00;;;;;;;17.53;4.00;;;;;;;;;;5040386;28;20417;-50
2022/02/02 10:16:16;;;;;;;10.53;4.27;;;;;;;;;;5061634;28;20400;-51
2022/02/02 10:18:42;;;;;;;15.20;4.00;;;;;;;;;;5061503;28;20444;-51
2022/02/02 10:21:09;;;;;;;27.70;5.40;;;;;;;;;;5060919;28;20467;-51
2022/02/02 10:23:36;;;;;;;29.53;7.23;;;;;;;;;;5060636;28;20409;-52
2022/02/02 10:26:14;;;;;;;13.57;3.90;;;;;;;;;;5063251;28;20405;-51
2022/02/02 10:28:40;;;;;;;20.00;3.87;;;;;;;;;;5046157;28;20425;-51
2022/02/02 10:31:07;;;;;;;19.57;3.50;;;;;;;;;;5043610;28;20457;-51
2022/02/02 10:33:34;;;;;;;26.73;4.47;;;;;;;;;;5040927;28;20796;-51
2022/02/02 10:36:11;;;;;;;9.57;3.60;;;;;;;;;;5044136;28;20433;-51
2022/02/02 10:38:49;;;;;;;17.73;2.93;;;;;;;;;;5044419;28;20476;-51
2022/02/02 10:41:26;;;;;;;25.50;4.60;;;;;;;;;;5047379;28;20462;-51
2022/02/02 10:44:03;;;;;;;13.60;3.63;;;;;;;;;;5053030;28;20917;-51
2022/02/02 10:46:37;;;;;;;10.70;3.27;;;;;;;;;;5045248;28;20481;-52
2022/02/02 10:49:13;;;;;;;12.00;3.30;;;;;;;;;;5043997;28;20401;-52
2022/02/02 10:54:20;;;;;;;14.87;3.70;;;;;;;;;;5063652;28;20408;-52
2022/02/02 10:56:56;;;;;;;9.63;3.07;;;;;;;;;;5061133;28;20751;-53
2022/02/02 11:07:17;;;;;;;18.03;3.53;;;;;;;;;;5059592;28;20452;-52
2022/02/02 11:09:47;;;;;;;24.57;3.83;;;;;;;;;;5062356;28;20404;-52
2022/02/02 11:12:14;;;;;;;15.80;3.10;;;;;;;;;;5062724;28;20476;-52
2022/02/02 11:14:42;;;;;;;10.77;2.83;;;;;;;;;;5066136;28;20778;-51
2022/02/02 11:17:28;;;;;;;9.70;3.50;;;;;;;;;;5066295;28;20395;-52
2022/02/02 11:19:57;;;;;;;14.30;3.47;;;;;;;;;;5066625;28;20455;-52
2022/02/02 11:22:31;;;;;;;13.10;4.03;;;;;;;;;;5065947;28;20408;-51
2022/02/02 11:25:03;;;;;;;12.63;3.00;;;;;;;;;;5066283;28;20408;-52
2022/02/02 11:27:46;;;;;;;20.87;3.43;;;;;;;;;;5065462;28;20414;-52
2022/02/02 11:30:24;;;;;;;11.37;2.90;;;;;;;;;;5065750;28;20433;-52
2022/02/02 11:32:57;;;;;;;10.87;3.33;;;;;;;;;;5066407;28;20405;-51
2022/02/02 11:35:46;;;;;;;11.27;2.83;;;;;;;;;;5066358;28;20410;-52
2022/02/02 11:38:23;;;;;;;8.60;2.07;;;;;;;;;;5064007;28;20439;-52
2022/02/02 11:43:54;;;;;;;13.93;3.23;;;;;;;;;;5046418;28;20463;-52
2022/02/02 11:46:39;;;;;;;15.77;2.70;;;;;;;;;;5045221;28;20405;-52
2022/02/02 11:49:15;;;;;;;9.87;3.07;;;;;;;;;;5052262;28;20490;-52
2022/02/02 11:51:45;;;;;;;6.97;2.77;;;;;;;;;;5049402;28;20429;-52
2022/02/02 11:54:32;;;;;;;12.90;3.27;;;;;;;;;;5047441;28;20395;-52
2022/02/02 11:57:02;;;;;;;10.57;2.83;;;;;;;;;;5039876;28;20419;-52
2022/02/02 12:02:19;;;;;;;18.13;3.97;;;;;;;;;;5045803;28;20436;-51
2022/02/02 12:05:07;;;;;;;10.40;3.53;;;;;;;;;;5045028;28;20440;-53
2022/02/02 12:08:10;;;;;;;8.70;3.20;;;;;;;;;;5046205;28;20436;-52
2022/02/02 12:10:39;;;;;;;16.30;4.00;;;;;;;;;;5045929;28;20453;-51
2022/02/02 12:44:37;;;;;;;21.93;4.10;;;;;;;;;;5032942;28;21033;-50
2022/02/02 12:57:44;;;;;;;12.50;4.23;;;;;;;;;;5032103;28;20559;-51
2022/02/02 13:00:13;;;;;;;15.23;4.47;;;;;;;;;;5031900;28;20800;-50
2022/02/02 13:02:40;;;;;;;20.57;3.63;;;;;;;;;;5032330;28;20493;-50
2022/02/02 13:05:08;;;;;;;9.43;3.23;;;;;;;;;;5032333;28;20402;-50
2022/02/02 13:07:34;;;;;;;8.90;3.57;;;;;;;;;;5032210;28;20414;-50
2022/02/02 13:10:03;;;;;;;20.13;3.77;;;;;;;;;;5031909;28;20553;-50
2022/02/02 13:12:46;;;;;;;11.63;3.63;;;;;;;;;;5031991;28;20413;-51
2022/02/02 13:17:57;;;;;;;14.30;3.80;;;;;;;;;;5051432;28;20418;-51
2022/02/02 13:20:33;;;;;;;18.37;4.87;;;;;;;;;;5049614;28;21405;-50
2022/02/02 13:23:10;;;;;;;9.43;3.23;;;;;;;;;;5049324;28;20428;-51
2022/02/02 13:25:38;;;;;;;24.37;4.90;;;;;;;;;;5051681;28;20926;-51
2022/02/02 13:28:06;;;;;;;12.67;3.57;;;;;;;;;;5051588;28;20401;-51
2022/02/02 13:30:44;;;;;;;13.90;4.00;;;;;;;;;;5051272;28;20929;-51
2022/02/02 13:33:30;;;;;;;16.43;4.40;;;;;;;;;;5051273;28;20415;-51
2022/02/02 13:36:26;;;;;;;14.80;4.10;;;;;;;;;;5044227;28;20388;-52
2022/02/02 13:47:39;;;;;;;15.40;3.50;;;;;;;;;;5051229;28;20508;-52
2022/02/02 13:50:38;;;;;;;10.73;2.97;;;;;;;;;;5048271;28;20425;-51
2022/02/02 13:55:35;;;;;;;11.13;3.10;;;;;;;;;;5051237;28;20412;-51
2022/02/02 13:58:27;;;;;;;15.40;4.03;;;;;;;;;;5050752;28;20409;-51
2022/02/02 14:01:02;;;;;;;7.97;3.17;;;;;;;;;;5050787;28;20515;-51
2022/02/02 14:03:53;;;;;;;12.90;4.13;;;;;;;;;;5051234;28;20399;-50
2022/02/02 14:33:22;;;;;;;13.47;3.10;;;;;;;;;;5030827;28;20398;-50
2022/02/02 14:35:50;;;;;;;8.20;2.90;;;;;;;;;;5030901;28;20490;-51
2022/02/02 14:38:18;;;;;;;10.17;2.43;;;;;;;;;;5030884;28;20433;-50
2022/02/02 14:43:37;;;;;;;11.53;2.93;;;;;;;;;;5029244;28;20913;-51
2022/02/02 14:46:04;;;;;;;7.10;2.77;;;;;;;;;;5030776;28;20994;-50
2022/02/02 14:48:35;;;;;;;18.23;4.00;;;;;;;;;;5030952;28;20443;-52
2022/02/02 14:51:20;;;;;;;10.80;2.73;;;;;;;;;;5030468;28;20453;-51
2022/02/02 14:53:58;;;;;;;5.13;2.23;;;;;;;;;;5030715;28;20420;-51
2022/02/02 15:29:18;;;;;;;8.50;3.20;;;;;;;;;;5063692;28;21005;-52
2022/02/02 15:31:46;;;;;;;12.67;3.40;;;;;;;;;;5063603;28;20412;-52
2022/02/02 15:34:18;;;;;;;9.50;3.23;;;;;;;;;;5062871;28;20393;-52
2022/02/02 15:37:21;;;;;;;12.80;2.80;;;;;;;;;;5062331;28;20683;-52
2022/02/02 15:39:58;;;;;;;9.93;2.43;;;;;;;;;;5061027;28;20460;-52
2022/02/02 15:59:18;;;;;;;9.27;3.60;;;;;;;;;;5063042;28;20401;-52
2022/02/02 16:04:21;;;;;;;17.97;2.60;;;;;;;;;;5063091;28;20403;-52
2022/02/02 16:06:48;;;;;;;7.13;3.07;;;;;;;;;;5062627;28;20539;-52
2022/02/02 16:09:23;;;;;;;10.60;2.80;;;;;;;;;;5062588;28;20444;-52
2022/02/02 16:14:52;;;;;;;22.53;5.87;;;;;;;;;;5063368;28;20865;-52
2022/02/02 16:36:22;;;;;;;18.70;3.63;;;;;;;;;;5063949;28;20440;-53
2022/02/02 16:39:01;;;;;;;16.10;4.67;;;;;;;;;;5064286;28;20401;-52
2022/02/02 16:44:12;;;;;;;23.73;4.30;;;;;;;;;;5057091;28;20466;-52
2022/02/02 16:46:38;;;;;;;16.73;3.97;;;;;;;;;;5051963;28;20444;-52
2022/02/02 16:49:04;;;;;;;15.87;5.20;;;;;;;;;;5043728;28;20401;-52
2022/02/02 16:51:30;;;;;;;21.73;6.50;;;;;;;;;;5043784;28;20490;-52
2022/02/02 16:53:59;;;;;;;14.30;3.73;;;;;;;;;;5043452;28;20460;-52
2022/02/02 17:31:52;;;;;;;16.27;3.63;;;;;;;;;;5062765;28;20469;-52
2022/02/02 17:34:28;;;;;;;10.60;3.93;;;;;;;;;;5062375;28;20414;-52
2022/02/02 17:37:05;;;;;;;16.77;4.30;;;;;;;;;;5063294;28;20400;-52
2022/02/02 17:39:45;;;;;;;22.50;4.60;;;;;;;;;;5061736;28;20406;-52
2022/02/02 18:15:30;;;;;;;20.10;6.60;;;;;;;;;;5042832;28;20907;-52
2022/02/02 18:19:59;;;;;;;18.27;6.60;;;;;;;;;;5042576;28;20459;-52
2022/02/02 18:22:32;;;;;;;17.33;6.43;;;;;;;;;;5042809;28;20421;-52
2022/02/02 18:25:19;;;;;;;29.27;8.87;;;;;;;;;;5043272;28;20406;-52
2022/02/02 18:27:57;;;;;;;20.93;8.30;;;;;;;;;;5042583;28;20491;-52
2022/02/02 18:30:46;;;;;;;23.30;8.07;;;;;;;;;;5042679;28;20421;-52
2022/02/02 18:35:45;;;;;;;15.20;8.93;;;;;;;;;;5043475;28;20412;-52
2022/02/02 18:44:34;;;;;;;24.73;11.67;;;;;;;;;;5043201;28;20401;-53
2022/02/02 18:51:30;;;;;;;21.03;7.00;;;;;;;;;;5062546;28;20433;-52
2022/02/02 18:56:46;;;;;;;20.87;7.80;;;;;;;;;;5067115;28;20406;-52
2022/02/02 19:01:50;;;;;;;30.13;9.40;;;;;;;;;;5066782;28;20471;-52
2022/02/02 19:07:20;;;;;;;20.53;8.03;;;;;;;;;;5066872;28;20494;-52
2022/02/02 19:40:14;;;;;;;20.43;6.30;;;;;;;;;;5063797;28;20514;-52
2022/02/02 20:04:35;;;;;;;17.60;5.73;;;;;;;;;;5064910;28;20394;-52
2022/02/02 20:09:52;;;;;;;23.50;6.53;;;;;;;;;;5065773;28;20401;-52
2022/02/02 20:12:23;;;;;;;20.17;5.70;;;;;;;;;;5065816;28;20467;-52
2022/02/02 20:14:49;;;;;;;13.00;5.60;;;;;;;;;;5066038;28;20477;-52
2022/02/02 20:17:17;;;;;;;14.73;6.60;;;;;;;;;;5065309;28;20400;-52
2022/02/02 20:19:49;;;;;;;17.70;5.80;;;;;;;;;;5065479;28;20392;-52
2022/02/02 20:22:18;;;;;;;14.97;6.60;;;;;;;;;;5064935;28;20401;-52
2022/02/02 20:24:52;;;;;;;26.40;6.63;;;;;;;;;;5065851;28;20397;-52
2022/02/02 20:27:18;;;;;;;17.13;6.53;;;;;;;;;;5065197;28;20845;-52
2022/02/02 20:29:44;;;;;;;11.90;5.70;;;;;;;;;;5065515;28;20396;-52
2022/02/02 20:32:10;;;;;;;24.47;6.33;;;;;;;;;;5064308;28;20473;-52
2022/02/02 20:34:36;;;;;;;23.60;7.20;;;;;;;;;;5065131;28;20404;-52
2022/02/02 20:37:02;;;;;;;21.67;6.13;;;;;;;;;;5065682;28;20400;-52
2022/02/02 20:42:14;;;;;;;11.40;6.00;;;;;;;;;;5064748;28;20656;-52
2022/02/02 21:01:17;;;;;;;22.20;6.63;;;;;;;;;;5063610;28;20475;-52
2022/02/02 21:06:16;;;;;;;16.03;6.20;;;;;;;;;;5064627;28;20435;-52
2022/02/02 21:11:19;;;;;;;13.90;7.20;;;;;;;;;;5044775;28;20524;-52
2022/02/02 21:13:52;;;;;;;25.00;7.80;;;;;;;;;;5044019;28;20409;-52
2022/02/02 21:16:21;;;;;;;31.87;9.13;;;;;;;;;;5044516;28;20475;-52
2022/02/02 21:18:54;;;;;;;20.20;7.10;;;;;;;;;;5044658;28;20409;-52
2022/02/02 21:21:23;;;;;;;23.97;8.67;;;;;;;;;;5044714;28;20510;-52
2022/02/02 21:29:23;;;;;;;21.10;7.97;;;;;;;;;;5042962;28;20422;-52
2022/02/02 21:31:49;;;;;;;22.87;8.43;;;;;;;;;;5043964;28;20428;-52
2022/02/02 21:34:17;;;;;;;17.53;8.20;;;;;;;;;;5044028;28;20409;-52
2022/02/02 21:36:43;;;;;;;31.20;9.93;;;;;;;;;;5044048;28;21113;-51
2022/02/02 21:39:19;;;;;;;19.93;8.70;;;;;;;;;;5056170;28;20436;-52
2022/02/02 21:41:46;;;;;;;22.40;8.80;;;;;;;;;;5064222;28;20467;-52
2022/02/02 21:44:13;;;;;;;22.73;9.57;;;;;;;;;;5064945;28;20397;-52
2022/02/02 21:46:41;;;;;;;21.93;9.10;;;;;;;;;;5064198;28;20404;-52
2022/02/02 21:49:09;;;;;;;26.23;9.30;;;;;;;;;;5057459;28;20440;-52
2022/02/02 21:51:41;;;;;;;21.70;9.27;;;;;;;;;;5047183;28;20468;-52
2022/02/02 21:54:07;;;;;;;21.30;8.53;;;;;;;;;;5044337;28;21122;-52
2022/02/02 21:56:33;;;;;;;20.63;9.97;;;;;;;;;;5043829;28;20526;-52
2022/02/02 21:58:59;;;;;;;22.13;9.90;;;;;;;;;;5043018;28;20912;-52
2022/02/02 22:01:27;;;;;;;21.60;10.60;;;;;;;;;;5043969;28;20491;-52
2022/02/02 22:03:53;;;;;;;33.27;12.10;;;;;;;;;;5044433;28;20781;-52
2022/02/02 22:06:19;;;;;;;22.50;10.70;;;;;;;;;;5042776;28;20411;-52
2022/02/02 22:08:45;;;;;;;32.00;12.70;;;;;;;;;;5044962;28;20461;-52
2022/02/02 22:11:11;;;;;;;26.67;11.90;;;;;;;;;;5042867;28;20432;-52
2022/02/02 22:13:40;;;;;;;28.83;11.73;;;;;;;;;;5043002;28;20408;-51
2022/02/02 22:16:11;;;;;;;25.90;11.73;;;;;;;;;;5043623;28;20433;-53
2022/02/02 22:18:38;;;;;;;33.93;13.10;;;;;;;;;;5043790;28;20492;-52
2022/02/02 22:21:04;;;;;;;30.63;13.07;;;;;;;;;;5041681;28;20469;-51
2022/02/02 22:23:30;;;;;;;32.27;14.47;;;;;;;;;;5030878;28;20401;-52
2022/02/02 22:25:57;;;;;;;29.63;13.53;;;;;;;;;;5030900;28;20796;-50
2022/02/02 22:28:24;;;;;;;33.57;14.20;;;;;;;;;;5030980;28;20488;-50
2022/02/02 22:30:50;;;;;;;27.93;14.00;;;;;;;;;;5033378;28;20424;-49
2022/02/02 22:33:16;;;;;;;33.13;14.77;;;;;;;;;;5034955;28;20895;-51
2022/02/02 22:35:42;;;;;;;35.17;13.97;;;;;;;;;;5035017;28;20417;-50
2022/02/02 22:38:09;;;;;;;48.47;15.37;;;;;;;;;;5034864;28;20434;-50
2022/02/02 22:40:35;;;;;;;42.67;15.97;;;;;;;;;;5040948;28;20464;-50
2022/02/02 22:43:01;;;;;;;33.17;14.70;;;;;;;;;;5034810;28;20799;-50
2022/02/02 22:45:28;;;;;;;37.23;14.80;;;;;;;;;;5034799;28;20474;-50
2022/02/02 22:47:56;;;;;;;34.50;15.30;;;;;;;;;;5034697;28;20528;-50
2022/02/02 22:50:22;;;;;;;33.30;14.80;;;;;;;;;;5034538;28;20444;-50
2022/02/02 22:52:52;;;;;;;34.90;15.17;;;;;;;;;;5034642;28;20471;-51
2022/02/02 22:55:18;;;;;;;38.63;15.70;;;;;;;;;;5034677;28;20411;-50
2022/02/02 22:57:45;;;;;;;41.13;15.73;;;;;;;;;;5037496;28;20521;-50
2022/02/02 23:00:14;;;;;;;38.13;16.87;;;;;;;;;;5052522;28;20463;-50
2022/02/02 23:02:58;;;;;;;37.67;16.03;;;;;;;;;;5054644;28;20404;-50
2022/02/02 23:05:33;;;;;;;34.83;15.67;;;;;;;;;;5054672;28;20776;-50
2022/02/02 23:08:00;;;;;;;35.27;15.33;;;;;;;;;;5043456;28;20416;-50
2022/02/02 23:10:28;;;;;;;41.30;17.20;;;;;;;;;;5050364;28;20427;-50
2022/02/02 23:12:54;;;;;;;36.33;17.00;;;;;;;;;;5054118;28;20407;-50
2022/02/02 23:15:26;;;;;;;39.30;18.20;;;;;;;;;;5054311;28;20417;-50
2022/02/02 23:17:52;;;;;;;37.60;16.63;;;;;;;;;;5054242;28;20481;-50
2022/02/02 23:20:18;;;;;;;31.77;17.00;;;;;;;;;;5053793;28;20452;-50
2022/02/02 23:22:46;;;;;;;41.20;16.90;;;;;;;;;;5051245;28;20969;-50
2022/02/02 23:25:17;;;;;;;41.87;16.47;;;;;;;;;;5052892;28;20879;-50
2022/02/02 23:27:45;;;;;;;35.53;16.40;;;;;;;;;;5054104;28;20401;-49
2022/02/02 23:30:14;;;;;;;35.67;16.43;;;;;;;;;;5053751;28;20443;-50
2022/02/02 23:32:40;;;;;;;36.90;16.43;;;;;;;;;;5053853;28;20473;-50
2022/02/02 23:35:10;;;;;;;35.27;16.47;;;;;;;;;;5053695;28;20523;-51
2022/02/02 23:37:37;;;;;;;38.47;15.37;;;;;;;;;;5053704;28;20411;-50
2022/02/02 23:40:04;;;;;;;30.03;14.00;;;;;;;;;;5053437;28;20447;-50
2022/02/02 23:42:35;;;;;;;30.47;15.00;;;;;;;;;;5053692;28;21069;-50
2022/02/02 23:45:01;;;;;;;30.70;15.30;;;;;;;;;;5053807;28;20404;-50
2022/02/02 23:47:28;;;;;;;39.53;15.20;;;;;;;;;;5053558;28;20485;-50
2022/02/02 23:50:00;;;;;;;34.33;16.47;;;;;;;;;;5053311;28;20408;-50
2022/02/02 23:52:34;;;;;;;28.67;15.80;;;;;;;;;;5048825;28;20428;-49
2022/02/02 23:55:03;;;;;;;29.03;15.30;;;;;;;;;;5033446;28;20407;-52
